Time;durP1;ratioP1;P1;durP2;ratioP2;P2;SDS_P1;SDS_P2;PMS_P1;PMS_P2;Temp;Humidity;BMP_temperature;BMP_pressure;BME280_temperature;BME280_humidity;BME280_pressure;Samples;Min_cycle;Max_cycle;Signal;HPM_P1;HPM_P2
2022/06/12 00:00:28;;;;;;;12.03;10.80;;;;;;;22.58;53.82;99494.33;1616592;88;21264;-69
2022/06/12 00:02:57;;;;;;;15.53;11.65;;;;;;;22.57;54.20;99495.46;1639297;87;21546;-68
2022/06/12 00:05:27;;;;;;;13.98;11.05;;;;;;;22.54;54.70;99496.14;1616639;88;21035;-68
2022/06/12 00:07:55;;;;;;;12.18;10.98;;;;;;;22.47;55.29;99494.48;1620524;87;20973;-69
2022/06/12 00:10:23;;;;;;;13.43;11.35;;;;;;;22.40;55.28;99494.20;1585655;88;21129;-68
2022/06/12 00:12:50;;;;;;;12.07;10.93;;;;;;;22.33;55.58;99506.27;1615950;88;21984;-69
2022/06/12 00:15:21;;;;;;;13.55;11.03;;;;;;;22.22;55.94;99505.03;1634462;87;22234;-68
2022/06/12 00:17:50;;;;;;;16.70;13.10;;;;;;;22.07;56.73;99520.91;1618049;87;21021;-69
2022/06/12 00:20:17;;;;;;;13.78;12.37;;;;;;;21.94;57.91;99510.98;1629892;87;21078;-69
2022/06/12 00:22:45;;;;;;;13.78;12.37;;;;;;;21.82;59.02;99507.31;1620815;87;21046;-69
2022/06/12 00:25:14;;;;;;;13.22;12.03;;;;;;;21.70;59.88;99515.64;1639287;87;21285;-70
2022/06/12 00:27:42;;;;;;;15.70;13.85;;;;;;;21.61;61.19;99506.66;1619161;87;21495;-67
2022/06/12 00:30:13;;;;;;;15.00;12.95;;;;;;;21.52;62.94;99505.89;1611746;88;21502;-70
2022/06/12 00:32:40;;;;;;;18.12;14.63;;;;;;;21.46;63.63;99508.55;1611629;88;21572;-69
2022/06/12 00:35:09;;;;;;;14.20;12.98;;;;;;;21.40;64.37;99507.67;1595011;89;21340;-68
2022/06/12 00:37:37;;;;;;;15.53;12.70;;;;;;;21.34;65.26;99509.00;1598771;88;21218;-69
2022/06/12 00:40:06;;;;;;;17.30;14.00;;;;;;;21.28;66.61;99513.27;1586169;90;21019;-69
2022/06/12 00:42:39;;;;;;;15.03;13.53;;;;;;;21.24;68.46;99513.69;1586860;90;21839;-69
2022/06/12 00:45:38;;;;;;;15.80;13.55;;;;;;;21.15;70.53;99513.46;1562184;90;21039;-70
2022/06/12 00:48:10;;;;;;;17.60;14.05;;;;;;;21.09;72.42;99509.25;1585632;90;21647;-69
2022/06/12 00:50:41;;;;;;;16.20;14.00;;;;;;;21.09;72.42;99509.25;1593262;90;21164;-72
2022/06/12 00:53:11;;;;;;;14.65;13.25;;;;;;;21.07;74.75;99510.12;1615446;88;21279;-68
2022/06/12 00:55:49;;;;;;;17.42;13.83;;;;;;;21.05;76.06;99505.55;1617158;88;21078;-68
2022/06/12 00:58:19;;;;;;;17.12;14.73;;;;;;;21.04;76.40;99507.48;1599127;88;21096;-68
2022/06/12 01:00:47;;;;;;;15.98;14.53;;;;;;;21.02;77.89;99507.55;1612301;88;20999;-68
2022/06/12 01:03:14;;;;;;;16.15;14.63;;;;;;;21.02;77.89;99507.55;1593802;90;21242;-67
2022/06/12 01:08:28;;;;;;;14.85;13.38;;;;;;;20.97;80.21;99503.61;1593472;90;21127;-67
2022/06/12 01:10:59;;;;;;;15.43;13.50;;;;;;;20.92;81.67;99507.88;1567205;90;21070;-68
2022/06/12 01:13:32;;;;;;;14.28;12.93;;;;;;;20.90;82.60;99504.12;1594246;88;21090;-68
2022/06/12 01:16:02;;;;;;;23.22;15.38;;;;;;;20.88;82.61;99510.45;1593722;90;21284;-67
2022/06/12 01:18:34;;;;;;;15.48;14.07;;;;;;;20.88;83.03;99499.52;1597062;88;21021;-68
2022/06/12 01:21:34;;;;;;;14.85;13.45;;;;;;;20.88;83.18;99504.43;1615825;88;21537;-67
2022/06/12 01:24:38;;;;;;;15.05;13.55;;;;;;;20.90;83.32;99500.02;1620613;88;21120;-66
2022/06/12 01:27:34;;;;;;;13.58;12.37;;;;;;;20.92;83.94;99502.41;1593511;90;21187;-65
2022/06/12 01:30:21;;;;;;;15.43;13.03;;;;;;;20.92;84.02;99496.94;1566072;90;21543;-69
2022/06/12 01:33:23;;;;;;;16.12;14.35;;;;;;;20.88;84.46;99498.16;1593548;90;21066;-69
2022/06/12 01:36:08;;;;;;;16.32;13.75;;;;;;;20.84;84.80;99497.20;1611923;87;21087;-67
2022/06/12 01:39:14;;;;;;;13.85;12.65;;;;;;;20.78;85.11;99493.01;1587525;90;21134;-68
2022/06/12 01:41:57;;;;;;;13.43;12.20;;;;;;;20.71;85.76;99492.14;1592501;88;21039;-66
2022/06/12 01:44:56;;;;;;;13.03;11.78;;;;;;;20.67;85.83;99491.15;1616937;88;21633;-68
2022/06/12 01:47:31;;;;;;;16.65;15.00;;;;;;;20.66;86.06;99492.30;1603610;88;22339;-69
2022/06/12 01:50:12;;;;;;;17.35;15.72;;;;;;;20.62;86.40;99490.53;1592852;90;21239;-70
2022/06/12 01:53:07;;;;;;;15.00;13.62;;;;;;;20.56;86.60;99493.17;1588926;90;21072;-69
2022/06/12 01:55:48;;;;;;;16.02;14.38;;;;;;;20.53;86.86;99492.45;1583250;88;21050;-70
2022/06/12 01:58:32;;;;;;;15.58;14.13;;;;;;;20.49;87.20;99490.91;1609686;87;21137;-69
2022/06/12 02:01:28;;;;;;;15.83;13.62;;;;;;;20.47;87.35;99489.08;1612559;89;21107;-68
2022/06/12 02:04:23;;;;;;;17.17;15.40;;;;;;;20.45;87.32;99502.23;1624455;87;21049;-70
2022/06/12 02:06:58;;;;;;;19.32;14.85;;;;;;;20.40;87.54;99494.19;1610188;89;21099;-70
2022/06/12 02:09:32;;;;;;;18.12;15.68;;;;;;;20.37;87.60;99499.75;1574332;89;20977;-69
2022/06/12 02:15:08;;;;;;;17.70;16.10;;;;;;;20.33;88.17;99497.41;1586784;90;20937;-69
2022/06/12 02:17:43;;;;;;;16.37;14.73;;;;;;;20.30;87.85;99502.66;1608828;89;21008;-70
2022/06/12 02:20:14;;;;;;;15.15;13.70;;;;;;;20.28;87.66;99494.80;1563200;91;21561;-70
2022/06/12 02:22:43;;;;;;;15.53;14.00;;;;;;;20.23;87.85;99495.51;1589050;89;21021;-70
2022/06/12 02:25:18;;;;;;;19.02;15.18;;;;;;;20.18;87.71;99501.92;1603053;89;21195;-70
2022/06/12 02:28:01;;;;;;;20.72;14.63;;;;;;;20.19;87.55;99496.68;1609692;89;20969;-70
2022/06/12 02:30:34;;;;;;;17.98;16.30;;;;;;;20.23;87.27;99497.68;1586735;90;21051;-69
2022/06/12 02:33:12;;;;;;;15.75;14.38;;;;;;;20.21;86.89;99497.18;1586227;90;21596;-69
2022/06/12 02:35:49;;;;;;;17.50;15.20;;;;;;;20.23;86.60;99494.95;1607313;88;21104;-70
2022/06/12 02:38:32;;;;;;;16.27;14.73;;;;;;;20.23;86.31;99493.59;1617667;87;21441;-70
2022/06/12 02:41:16;;;;;;;18.92;16.90;;;;;;;20.23;86.00;99496.31;1620186;87;21127;-70
2022/06/12 02:43:44;;;;;;;17.87;16.17;;;;;;;20.18;85.95;99497.02;1605258;89;21113;-70
2022/06/12 02:46:25;;;;;;;18.95;16.10;;;;;;;20.18;85.93;99491.56;1630062;87;21058;-69
2022/06/12 02:48:52;;;;;;;16.95;15.25;;;;;;;20.20;85.74;99494.76;1600799;88;21051;-69
2022/06/12 02:51:31;;;;;;;17.62;15.90;;;;;;;20.24;85.46;99494.39;1569789;90;21165;-69
2022/06/12 02:54:34;;;;;;;17.75;16.05;;;;;;;20.24;85.15;99485.61;1600376;87;21510;-69
2022/06/12 02:57:25;;;;;;;18.42;16.62;;;;;;;20.24;85.01;99490.30;1608136;89;20969;-69
2022/06/12 03:00:16;;;;;;;17.75;16.05;;;;;;;20.18;84.98;99488.27;1580845;89;21096;-69
2022/06/12 03:03:10;;;;;;;16.07;14.70;;;;;;;20.15;85.12;99490.81;1611054;89;21068;-70
2022/06/12 03:05:40;;;;;;;17.98;16.17;;;;;;;20.13;85.26;99492.52;1560746;89;21329;-69
2022/06/12 03:08:17;;;;;;;19.75;14.45;;;;;;;20.14;85.33;99494.69;1593695;90;21014;-70
2022/06/12 03:10:54;;;;;;;16.65;15.15;;;;;;;20.16;85.32;99497.33;1593627;90;21118;-70
2022/06/12 03:13:22;;;;;;;16.50;14.80;;;;;;;20.15;85.21;99492.98;1579206;90;21080;-69
2022/06/12 03:15:57;;;;;;;16.35;14.63;;;;;;;20.16;85.15;99491.87;1609647;89;21546;-69
2022/06/12 03:18:31;;;;;;;18.82;16.82;;;;;;;20.13;85.16;99491.15;1634891;87;22038;-69
2022/06/12 03:21:33;;;;;;;18.60;16.42;;;;;;;20.10;85.27;99494.50;1620536;88;20983;-72
2022/06/12 03:24:34;;;;;;;15.88;14.30;;;;;;;20.08;85.43;99499.48;1578280;90;21597;-69
2022/06/12 03:27:22;;;;;;;18.92;14.90;;;;;;;20.07;85.74;99496.50;1583592;90;21058;-69
2022/06/12 03:30:15;;;;;;;17.35;15.85;;;;;;;20.01;86.32;99494.48;1599182;89;21194;-69
2022/06/12 03:33:08;;;;;;;17.70;16.25;;;;;;;20.03;85.99;99494.98;1603359;88;21173;-71
2022/06/12 03:35:47;;;;;;;18.67;16.80;;;;;;;20.08;85.80;99495.95;1540396;92;21139;-69
2022/06/12 03:38:23;;;;;;;19.50;16.52;;;;;;;20.13;85.46;99496.61;1576857;90;21038;-68
2022/06/12 03:41:13;;;;;;;18.65;15.13;;;;;;;20.17;85.28;99498.14;1574031;91;21552;-69
2022/06/12 03:43:52;;;;;;;15.83;14.25;;;;;;;20.18;85.38;99489.64;1601926;87;21563;-69
2022/06/12 03:46:34;;;;;;;17.10;15.35;;;;;;;20.19;85.20;99497.27;1610582;89;22194;-70
2022/06/12 03:49:12;;;;;;;17.70;15.43;;;;;;;20.18;85.13;99494.29;1610436;88;21525;-68
2022/06/12 03:52:12;;;;;;;16.73;15.23;;;;;;;20.18;84.89;99502.48;1625998;87;21033;-69
2022/06/12 03:54:47;;;;;;;16.57;15.18;;;;;;;20.21;84.59;99497.18;1585904;90;21048;-68
2022/06/12 03:57:53;;;;;;;20.82;14.63;;;;;;;20.27;84.40;99492.38;1586780;90;21105;-70
2022/06/12 04:00:39;;;;;;;19.25;17.50;;;;;;;20.32;84.12;99497.16;1586579;90;21891;-70
2022/06/12 04:03:31;;;;;;;17.40;15.72;;;;;;;20.42;83.13;99490.03;1586332;90;20979;-70
2022/06/12 04:06:08;;;;;;;17.15;15.48;;;;;;;20.53;82.16;99494.60;1579235;89;21063;-72
2022/06/12 04:08:39;;;;;;;15.65;14.25;;;;;;;20.62;81.33;99496.80;1613258;89;21066;-70
2022/06/12 04:11:09;;;;;;;16.67;14.40;;;;;;;20.71;80.59;99498.98;1608223;89;21063;-68
2022/06/12 04:13:38;;;;;;;17.55;15.68;;;;;;;20.79;80.00;99496.80;1586390;90;22206;-70
2022/06/12 04:16:36;;;;;;;16.25;14.85;;;;;;;20.86;79.68;99505.30;1586279;90;21040;-69
2022/06/12 04:19:06;;;;;;;17.60;15.78;;;;;;;20.95;79.37;99501.78;1580235;90;21066;-70
2022/06/12 04:21:40;;;;;;;17.67;15.93;;;;;;;21.03;78.77;99503.69;1601511;89;21546;-69
2022/06/12 04:24:33;;;;;;;16.00;14.47;;;;;;;21.10;78.47;99504.02;1619902;88;21013;-69
2022/06/12 04:27:17;;;;;;;16.12;14.58;;;;;;;21.19;78.20;99500.17;1609665;87;21064;-69
2022/06/12 04:29:58;;;;;;;20.12;15.35;;;;;;;21.31;77.82;99510.44;1610687;89;21044;-71
2022/06/12 04:32:25;;;;;;;17.40;14.90;;;;;;;21.43;77.44;99513.33;1601765;87;21029;-73
2022/06/12 04:34:53;;;;;;;15.00;13.72;;;;;;;21.52;77.03;99522.31;1584393;89;21600;-69
2022/06/12 04:37:26;;;;;;;17.05;15.50;;;;;;;21.60;76.49;99517.92;1580979;90;21627;-70
2022/06/12 04:39:54;;;;;;;15.60;14.05;;;;;;;21.66;76.08;99519.37;1592494;90;21795;-70
2022/06/12 04:42:22;;;;;;;15.03;13.20;;;;;;;21.71;75.76;99515.09;1592535;90;21106;-70
2022/06/12 04:44:49;;;;;;;16.87;14.07;;;;;;;21.75;75.46;99518.20;1608811;89;21605;-70
2022/06/12 04:47:20;;;;;;;14.83;13.53;;;;;;;21.77;75.18;99517.08;1593212;87;21069;-70
2022/06/12 04:49:49;;;;;;;20.70;16.27;;;;;;;21.80;74.92;99517.22;1619537;88;21099;-69
2022/06/12 04:52:16;;;;;;;19.62;13.98;;;;;;;21.86;74.60;99519.22;1604106;88;21769;-69
2022/06/12 04:54:44;;;;;;;15.25;13.85;;;;;;;21.91;74.38;99514.36;1592407;90;21082;-68
2022/06/12 04:57:12;;;;;;;16.17;14.68;;;;;;;21.95;74.27;99519.45;1592270;90;21119;-70
2022/06/12 04:59:39;;;;;;;18.27;16.15;;;;;;;21.97;74.07;99519.91;1592497;90;21086;-69
2022/06/12 05:02:05;;;;;;;16.80;15.18;;;;;;;22.00;73.86;99516.52;1597561;88;21047;-69
2022/06/12 05:04:33;;;;;;;17.25;14.65;;;;;;;21.97;73.90;99517.16;1591162;88;21093;-71
2022/06/12 05:07:00;;;;;;;18.87;16.97;;;;;;;21.95;74.74;99536.44;1617303;88;21632;-70
2022/06/12 05:09:30;;;;;;;16.80;15.08;;;;;;;21.95;74.74;99536.44;1618194;88;21058;-70
2022/06/12 05:11:56;;;;;;;14.90;13.35;;;;;;;21.99;74.69;99543.67;1592527;90;21075;-70
2022/06/12 05:14:23;;;;;;;17.27;14.90;;;;;;;22.00;75.07;99539.00;1592317;90;21091;-69
2022/06/12 05:16:55;;;;;;;16.23;14.63;;;;;;;22.02;75.05;99536.16;1592550;90;21727;-69
2022/06/12 05:19:26;;;;;;;17.15;15.32;;;;;;;22.06;75.08;99536.33;1615688;88;21099;-70
2022/06/12 05:21:54;;;;;;;16.70;15.10;;;;;;;22.07;75.11;99535.97;1625422;87;21579;-69
2022/06/12 05:24:21;;;;;;;21.42;15.85;;;;;;;22.07;75.47;99540.08;1582887;89;21058;-72
2022/06/12 05:26:50;;;;;;;15.78;14.28;;;;;;;22.09;75.46;99540.56;1608454;89;21735;-69
2022/06/12 05:29:25;;;;;;;16.82;15.35;;;;;;;22.12;75.29;99531.68;1596204;88;21590;-71
2022/06/12 05:31:54;;;;;;;16.60;14.90;;;;;;;22.13;75.59;99541.51;1627187;87;21147;-68
2022/06/12 05:34:21;;;;;;;17.25;15.55;;;;;;;22.16;75.61;99542.77;1600482;88;21052;-69
2022/06/12 05:36:48;;;;;;;17.40;15.83;;;;;;;22.21;75.62;99539.84;1609106;89;21077;-71
2022/06/12 05:39:15;;;;;;;19.23;17.23;;;;;;;22.26;75.62;99541.03;1609111;87;21066;-68
2022/06/12 05:41:44;;;;;;;18.87;16.97;;;;;;;22.31;75.66;99542.21;1586640;90;21243;-70
2022/06/12 05:44:13;;;;;;;16.75;15.08;;;;;;;22.38;75.60;99543.87;1597460;88;21033;-69
2022/06/12 05:46:40;;;;;;;17.00;15.63;;;;;;;22.42;75.62;99539.34;1585224;90;20975;-69
2022/06/12 05:49:06;;;;;;;17.35;15.75;;;;;;;22.46;75.08;99535.36;1585121;90;21561;-68
2022/06/12 05:51:33;;;;;;;18.57;16.90;;;;;;;22.50;74.49;99532.98;1566303;90;22238;-68
2022/06/12 05:54:00;;;;;;;19.37;17.32;;;;;;;22.52;74.61;99540.89;1608754;87;22128;-69
2022/06/12 05:56:28;;;;;;;15.78;14.45;;;;;;;22.43;74.85;99545.06;1610266;89;21045;-69
2022/06/12 05:58:59;;;;;;;17.98;16.40;;;;;;;22.43;74.96;99553.84;1610405;89;21034;-70
2022/06/12 06:01:26;;;;;;;17.65;16.17;;;;;;;22.43;75.00;99550.55;1609103;88;21081;-68
2022/06/12 06:03:53;;;;;;;17.67;15.98;;;;;;;22.46;75.05;99547.69;1591982;89;21049;-68
2022/06/12 06:06:29;;;;;;;16.87;15.45;;;;;;;22.46;75.65;99540.84;1594271;89;21605;-68
2022/06/12 06:08:57;;;;;;;17.37;15.72;;;;;;;22.50;75.54;99548.63;1613226;89;21019;-68
2022/06/12 06:11:26;;;;;;;17.27;15.30;;;;;;;22.57;75.64;99538.76;1606318;89;21018;-70
2022/06/12 06:13:53;;;;;;;16.07;14.25;;;;;;;22.67;75.36;99538.94;1586434;90;21087;-70
2022/06/12 06:16:21;;;;;;;19.12;16.30;;;;;;;22.77;74.95;99538.57;1586315;90;21162;-69
2022/06/12 06:18:47;;;;;;;16.65;14.78;;;;;;;22.90;74.23;99543.55;1586764;90;22092;-69
2022/06/12 06:21:15;;;;;;;16.75;15.05;;;;;;;23.01;73.66;99543.37;1587689;89;21104;-69
2022/06/12 06:23:43;;;;;;;15.00;13.53;;;;;;;23.12;72.98;99540.44;1600085;89;21075;-69
2022/06/12 06:26:10;;;;;;;14.13;12.63;;;;;;;23.27;71.77;99532.15;1586433;90;21116;-70
2022/06/12 06:28:37;;;;;;;13.43;12.13;;;;;;;23.39;70.24;99531.64;1596518;89;21055;-69
2022/06/12 06:31:06;;;;;;;14.13;11.68;;;;;;;23.53;68.27;99527.81;1611643;87;21567;-71
2022/06/12 06:33:33;;;;;;;14.30;11.30;;;;;;;23.64;66.50;99529.80;1615042;87;21134;-71
2022/06/12 06:36:00;;;;;;;10.00;9.20;;;;;;;23.78;63.38;99525.34;1596178;88;21027;-68
2022/06/12 06:38:27;;;;;;;9.75;8.93;;;;;;;23.87;62.87;99534.28;1608101;88;21079;-69
2022/06/12 06:40:54;;;;;;;10.03;9.00;;;;;;;23.96;62.77;99530.05;1609490;88;21529;-68
2022/06/12 06:43:20;;;;;;;10.80;9.25;;;;;;;24.03;62.07;99526.95;1593311;90;21155;-68
2022/06/12 06:48:33;;;;;;;8.73;7.85;;;;;;;24.24;61.03;99529.63;1593619;90;21110;-68
2022/06/12 06:51:00;;;;;;;11.05;8.90;;;;;;;24.33;60.92;99519.30;1593860;88;21051;-68
2022/06/12 06:53:26;;;;;;;12.33;9.63;;;;;;;24.43;61.02;99525.71;1620026;88;21588;-68
2022/06/12 06:55:53;;;;;;;9.45;8.55;;;;;;;24.50;59.96;99519.07;1615291;88;21374;-69
2022/06/12 06:58:24;;;;;;;11.73;10.25;;;;;;;24.56;59.87;99520.98;1593569;90;20992;-67
2022/06/12 07:00:51;;;;;;;11.75;10.60;;;;;;;24.64;60.61;99521.45;1593445;90;21031;-68
2022/06/12 07:03:18;;;;;;;14.73;11.15;;;;;;;24.72;62.45;99528.18;1593470;90;21038;-70
2022/06/12 07:05:46;;;;;;;9.15;8.35;;;;;;;24.79;61.70;99525.42;1593573;90;21055;-70
2022/06/12 07:08:13;;;;;;;10.85;9.78;;;;;;;24.85;60.04;99521.25;1576726;90;22240;-71
2022/06/12 07:10:42;;;;;;;11.83;10.63;;;;;;;24.94;59.84;99528.25;1593503;90;21082;-69
2022/06/12 07:13:09;;;;;;;11.85;10.65;;;;;;;25.05;60.90;99528.56;1593451;90;21030;-70
2022/06/12 07:15:37;;;;;;;12.70;9.98;;;;;;;25.14;61.29;99528.64;1593561;90;21692;-69
2022/06/12 07:18:07;;;;;;;12.25;9.00;;;;;;;25.23;60.69;99524.95;1580556;89;21010;-69
2022/06/12 07:20:38;;;;;;;9.40;8.40;;;;;;;25.28;57.29;99523.30;1610054;87;21913;-70
2022/06/12 07:23:05;;;;;;;15.83;10.48;;;;;;;25.34;57.33;99531.53;1612506;87;21101;-71
2022/06/12 07:25:36;;;;;;;10.32;8.70;;;;;;;25.39;55.97;99512.81;1585432;89;21035;-71
2022/06/12 07:28:03;;;;;;;16.35;10.25;;;;;;;25.47;55.69;99524.80;1583560;90;21044;-69
2022/06/12 07:30:32;;;;;;;13.75;9.95;;;;;;;25.55;57.62;99521.13;1561696;90;21096;-69
2022/06/12 07:32:59;;;;;;;17.92;12.23;;;;;;;25.63;58.41;99527.61;1587405;89;21310;-70
2022/06/12 07:35:25;;;;;;;11.48;10.13;;;;;;;25.72;58.75;99537.31;1581324;88;21041;-69
2022/06/12 07:37:53;;;;;;;12.88;10.30;;;;;;;25.79;59.67;99522.36;1583861;90;21010;-69
2022/06/12 07:40:27;;;;;;;10.50;9.45;;;;;;;25.82;59.28;99521.63;1591467;89;21192;-69
2022/06/12 07:42:55;;;;;;;12.65;9.98;;;;;;;25.82;59.43;99527.14;1561286;90;21165;-69
2022/06/12 07:45:21;;;;;;;10.85;9.85;;;;;;;25.85;59.46;99522.89;1554159;90;21468;-68
2022/06/12 07:47:48;;;;;;;11.08;9.80;;;;;;;25.90;59.11;99517.12;1565144;91;21142;-68
2022/06/12 07:50:15;;;;;;;9.98;9.08;;;;;;;25.95;59.28;99526.47;1567139;90;21097;-69
2022/06/12 07:52:42;;;;;;;10.58;8.38;;;;;;;25.98;57.81;99523.02;1574823;90;21046;-69
2022/06/12 07:55:12;;;;;;;11.08;9.98;;;;;;;26.00;58.48;99527.00;1563063;90;21587;-69
2022/06/12 07:57:39;;;;;;;9.83;8.95;;;;;;;26.10;58.67;99524.86;1572827;90;21215;-69
2022/06/12 08:00:08;;;;;;;9.50;8.68;;;;;;;26.18;58.64;99523.89;1598243;89;21052;-71
2022/06/12 08:02:37;;;;;;;12.85;9.08;;;;;;;26.23;57.26;99525.83;1592607;87;21450;-70
2022/06/12 08:05:05;;;;;;;9.45;8.55;;;;;;;26.26;57.08;99519.59;1586523;89;21059;-70
2022/06/12 08:07:32;;;;;;;8.68;7.95;;;;;;;26.33;57.40;99532.76;1569493;90;21171;-69
2022/06/12 08:09:58;;;;;;;9.55;8.63;;;;;;;26.40;57.52;99528.77;1570852;90;21105;-71
2022/06/12 08:12:26;;;;;;;9.48;8.58;;;;;;;26.41;57.37;99520.72;1609095;89;21116;-70
2022/06/12 08:14:54;;;;;;;14.13;9.13;;;;;;;26.41;56.94;99522.10;1566795;90;21524;-68
2022/06/12 08:17:21;;;;;;;9.93;7.97;;;;;;;26.45;56.68;99528.49;1567871;91;21113;-69
2022/06/12 08:22:36;;;;;;;8.95;8.25;;;;;;;26.55;57.07;99540.35;1591976;90;21094;-70
2022/06/12 08:25:04;;;;;;;9.00;8.30;;;;;;;26.61;56.53;99522.94;1574712;89;21083;-68
2022/06/12 08:27:31;;;;;;;7.92;7.12;;;;;;;26.68;56.49;99518.94;1563181;91;21538;-70
2022/06/12 08:30:01;;;;;;;9.48;8.18;;;;;;;26.77;55.77;99512.05;1584169;90;21664;-71
2022/06/12 08:32:30;;;;;;;11.35;8.38;;;;;;;26.82;54.75;99525.56;1566295;90;21626;-69
2022/06/12 08:35:01;;;;;;;8.78;7.87;;;;;;;26.78;54.08;99528.84;1554193;90;21625;-69
2022/06/12 08:37:32;;;;;;;8.23;7.53;;;;;;;26.73;53.76;99526.36;1607972;88;21052;-68
2022/06/12 08:39:59;;;;;;;9.70;7.53;;;;;;;26.77;54.07;99526.43;1588680;87;21150;-70
2022/06/12 08:42:38;;;;;;;8.85;6.78;;;;;;;26.86;54.46;99527.84;1608480;89;21009;-69
2022/06/12 08:45:18;;;;;;;7.62;6.78;;;;;;;26.92;53.93;99516.52;1610178;87;21036;-71
2022/06/12 08:48:30;;;;;;;7.72;7.03;;;;;;;26.99;53.96;99518.87;1609811;89;21115;-70
2022/06/12 08:51:19;;;;;;;12.78;6.80;;;;;;;27.09;53.47;99540.38;1608738;87;21060;-71
2022/06/12 08:53:51;;;;;;;8.23;7.40;;;;;;;27.18;52.90;99523.58;1626271;87;21074;-68
2022/06/12 08:56:35;;;;;;;11.30;6.83;;;;;;;27.28;52.20;99538.98;1623721;87;21068;-72
2022/06/12 08:59:34;;;;;;;7.00;6.40;;;;;;;27.22;51.77;99529.39;1577597;89;21057;-70
2022/06/12 09:02:08;;;;;;;9.95;6.78;;;;;;;27.21;51.87;99519.50;1616348;87;21126;-71
2022/06/12 09:04:34;;;;;;;7.87;6.03;;;;;;;27.23;51.37;99533.75;1623374;87;20923;-72
2022/06/12 09:07:09;;;;;;;7.20;6.50;;;;;;;27.30;51.01;99514.54;1610631;88;21070;-72
2022/06/12 09:09:51;;;;;;;8.40;6.17;;;;;;;27.40;50.23;99521.43;1619756;88;21051;-73
2022/06/12 09:12:36;;;;;;;9.83;6.00;;;;;;;27.51;49.32;99522.47;1597321;88;21119;-71
2022/06/12 09:15:32;;;;;;;8.60;6.00;;;;;;;27.58;48.71;99529.48;1599346;87;21640;-73
2022/06/12 09:18:26;;;;;;;6.05;5.47;;;;;;;27.54;47.78;99524.48;1582722;90;21059;-73
2022/06/12 09:21:13;;;;;;;5.80;5.33;;;;;;;27.58;46.79;99530.88;1624653;87;21149;-72
2022/06/12 09:24:07;;;;;;;6.28;5.78;;;;;;;27.65;46.59;99510.29;1608269;87;21044;-70
2022/06/12 09:27:15;;;;;;;5.90;5.40;;;;;;;27.69;46.42;99526.92;1613555;86;21092;-71
2022/06/12 09:30:09;;;;;;;6.00;5.17;;;;;;;27.73;45.88;99520.87;1609689;89;21200;-71
2022/06/12 09:33:12;;;;;;;7.53;4.78;;;;;;;27.73;45.70;99523.64;1581001;90;21039;-71
2022/06/12 09:36:01;;;;;;;5.90;5.42;;;;;;;27.74;45.25;99516.37;1585753;89;21620;-71
2022/06/12 09:39:22;;;;;;;5.60;5.20;;;;;;;27.72;45.20;99523.45;1553124;91;21670;-72
2022/06/12 09:41:58;;;;;;;8.18;5.50;;;;;;;27.74;44.95;99513.60;1570201;91;21142;-72
2022/06/12 09:44:49;;;;;;;10.63;5.42;;;;;;;27.78;44.74;99512.86;1574364;90;21253;-71
2022/06/12 09:47:52;;;;;;;6.55;4.83;;;;;;;27.80;44.72;99514.68;1587166;90;21044;-70
2022/06/12 09:50:42;;;;;;;5.90;5.30;;;;;;;27.88;44.31;99519.16;1587372;90;21063;-70
2022/06/12 09:53:29;;;;;;;6.33;5.28;;;;;;;27.95;43.98;99504.08;1587012;90;21098;-70
2022/06/12 09:56:29;;;;;;;4.95;4.55;;;;;;;28.00;44.04;99506.53;1563958;91;21058;-71
2022/06/12 09:59:17;;;;;;;8.18;5.28;;;;;;;28.10;44.00;99510.86;1563907;91;21923;-70
2022/06/12 10:01:47;;;;;;;8.50;5.90;;;;;;;28.23;43.76;99513.44;1563772;91;21073;-71
2022/06/12 10:04:19;;;;;;;6.45;5.72;;;;;;;28.33;43.64;99514.19;1592455;89;21511;-71
2022/06/12 10:06:57;;;;;;;8.53;5.20;;;;;;;28.40;43.63;99506.77;1587117;90;21101;-72
2022/06/12 10:09:39;;;;;;;11.00;5.42;;;;;;;28.45;43.27;99495.97;1586527;90;21070;-71
2022/06/12 10:12:21;;;;;;;5.85;4.70;;;;;;;28.50;43.07;99508.90;1586545;90;21237;-72
2022/06/12 10:14:54;;;;;;;5.42;5.05;;;;;;;28.58;42.96;99503.66;1586250;90;21059;-72
2022/06/12 10:17:34;;;;;;;;;;;;;;;28.70;43.02;99491.58;1589188;90;21133;-71
2022/06/12 10:20:09;;;;;;;7.50;6.00;;;;;;;28.70;42.81;99502.64;1586496;90;20216;-71
2022/06/12 10:22:49;;;;;;;6.70;6.08;;;;;;;28.76;42.80;99490.69;1586483;90;21115;-72
2022/06/12 10:25:27;;;;;;;6.15;5.65;;;;;;;28.78;42.43;99491.89;1593451;90;21230;-73
2022/06/12 10:27:59;;;;;;;6.08;5.58;;;;;;;28.82;42.54;99483.07;1593853;90;21636;-71
2022/06/12 10:30:40;;;;;;;6.28;5.78;;;;;;;28.84;42.33;99503.44;1593665;88;21066;-70
2022/06/12 10:33:35;;;;;;;5.45;4.95;;;;;;;28.91;42.14;99496.63;1567294;90;21106;-71
2022/06/12 10:36:05;;;;;;;5.80;5.17;;;;;;;29.03;41.64;99491.62;1593396;88;21156;-68
2022/06/12 10:38:35;;;;;;;8.00;6.00;;;;;;;29.10;41.67;99483.99;1599877;88;21488;-83
2022/06/12 10:41:05;;;;;;;6.45;5.95;;;;;;;29.14;42.10;99481.25;1618996;88;20944;-82
2022/06/12 10:43:46;;;;;;;11.10;6.65;;;;;;;29.13;43.01;99480.45;1619486;88;21019;-81
2022/06/12 10:46:21;;;;;;;7.05;6.35;;;;;;;29.09;42.66;99491.28;1592480;90;21030;-74
2022/06/12 10:49:17;;;;;;;9.78;7.83;;;;;;;28.94;42.52;99487.55;1593152;90;21086;-79
2022/06/12 10:51:44;;;;;;;9.55;5.95;;;;;;;28.81;42.93;99492.55;1610307;88;21310;-71
2022/06/12 10:54:20;;;;;;;7.80;7.15;;;;;;;28.77;43.87;99486.17;1614115;88;21131;-76
2022/06/12 10:57:09;;;;;;;10.25;7.00;;;;;;;28.85;43.81;99483.69;1588867;90;21046;-73
2022/06/12 10:59:44;;;;;;;6.28;5.58;;;;;;;28.92;44.38;99487.92;1608670;88;21043;-73
2022/06/12 11:02:26;;;;;;;6.15;5.67;;;;;;;28.90;44.99;99483.36;1617688;88;21080;-83
2022/06/12 11:05:28;;;;;;;6.55;6.05;;;;;;;28.87;45.61;99501.32;1591415;88;21136;-74
2022/06/12 11:08:34;;;;;;;5.92;5.42;;;;;;;28.76;45.80;99483.77;1580570;89;21614;-78
2022/06/12 11:11:25;;;;;;;9.65;6.87;;;;;;;28.66;46.29;99475.51;1618965;88;21027;-78
2022/06/12 11:14:16;;;;;;;6.95;6.45;;;;;;;28.60;46.75;99481.16;1574295;89;21042;-79
2022/06/12 11:17:25;;;;;;;7.45;6.70;;;;;;;28.32;47.01;99485.72;1613513;88;21056;-79
2022/06/12 11:20:06;;;;;;;8.95;7.30;;;;;;;27.99;46.96;99486.38;1549833;92;21173;-77
2022/06/12 11:22:53;;;;;;;9.03;8.03;;;;;;;27.84;47.41;99496.18;1555634;91;21146;-77
2022/06/12 11:25:30;;;;;;;7.65;7.05;;;;;;;27.68;47.67;99483.28;1592839;90;21063;-79
2022/06/12 11:28:40;;;;;;;9.23;7.17;;;;;;;27.81;47.34;99480.34;1573201;91;21142;-77
2022/06/12 11:31:30;;;;;;;7.47;6.78;;;;;;;28.04;47.24;99476.97;1592705;89;21111;-78
2022/06/12 11:34:36;;;;;;;6.90;6.30;;;;;;;28.28;46.94;99477.95;1573124;91;21181;-78
2022/06/12 11:37:35;;;;;;;6.70;6.10;;;;;;;28.43;45.48;99481.14;1592345;89;21115;-79
2022/06/12 11:40:37;;;;;;;6.87;6.28;;;;;;;28.35;44.61;99477.24;1592145;90;21077;-79
2022/06/12 11:43:33;;;;;;;6.85;6.03;;;;;;;28.27;45.45;99461.72;1591663;90;21067;-77
2022/06/12 11:46:32;;;;;;;6.70;6.10;;;;;;;28.32;45.59;99446.98;1564431;90;21646;-81
2022/06/12 11:49:16;;;;;;;6.62;6.12;;;;;;;28.52;45.61;99440.15;1586459;90;22132;-77
2022/06/12 11:52:01;;;;;;;8.30;5.90;;;;;;;28.79;45.44;99435.94;1586401;90;21150;-79
2022/06/12 11:54:57;;;;;;;6.28;5.70;;;;;;;28.95;44.12;99443.45;1591022;90;21011;-76
2022/06/12 11:57:29;;;;;;;6.33;5.72;;;;;;;29.20;43.65;99451.45;1544529;90;21071;-78
2022/06/12 12:00:13;;;;;;;6.80;5.97;;;;;;;29.31;43.07;99452.95;1593315;90;21107;-78
2022/06/12 12:03:17;;;;;;;6.10;5.58;;;;;;;29.35;42.28;99457.35;1592775;90;21267;-78
2022/06/12 12:06:02;;;;;;;8.63;5.92;;;;;;;29.40;41.17;99434.07;1565216;91;21179;-76
2022/06/12 12:08:48;;;;;;;5.92;4.90;;;;;;;29.50;40.96;99433.95;1565898;91;21069;-77
2022/06/12 12:11:27;;;;;;;5.08;4.67;;;;;;;29.51;40.80;99439.09;1565599;91;21567;-78
2022/06/12 12:13:58;;;;;;;8.83;5.50;;;;;;;29.52;40.34;99451.78;1599347;89;21577;-77
2022/06/12 12:16:43;;;;;;;5.35;5.03;;;;;;;29.53;40.00;99447.04;1606421;89;21245;-76
2022/06/12 12:19:24;;;;;;;8.18;5.03;;;;;;;29.54;39.75;99433.39;1610388;89;21083;-76
2022/06/12 12:22:11;;;;;;;5.47;4.97;;;;;;;29.43;39.19;99443.00;1610204;89;21072;-77